This is the latest recevied weather packets stored in our database for station/object HA2SKA-1. If no packets are shown the sender has not sent any weather packets the latest 1 day(s).
| Time | Temp. | Humidity | Pressure | Rain* | Wind** | Luminosity | Snow |
|---|---|---|---|---|---|---|---|
| 1778087738 | 21.67° C | 49% | 1011.6 hPa | - | - | - | - |
| 1778085938 | 22.22° C | 46% | 1011.5 hPa | - | - | - | - |
| 1778085038 | 22.78° C | 45% | 1011.7 hPa | - | - | - | - |
| 1778084138 | 22.78° C | 44% | 1011.7 hPa | - | - | - | - |
| 1778083238 | 23.33° C | 44% | 1011.8 hPa | - | - | - | - |
| 1778076037 | 24.44° C | 41% | 1012 hPa | - | - | - | - |
| 1778075137 | 25° C | 40% | 1012 hPa | - | - | - | - |
| 1778074237 | 25° C | 40% | 1012 hPa | - | - | - | - |
| 1778071547 | 26.11° C | 37% | 1012.1 hPa | - | - | - | - |
| 1778068847 | 25° C | 38% | 1012.1 hPa | - | - | - | - |
| 1778067947 | 25.56° C | 37% | 1012.2 hPa | - | - | - | - |
| 1778067047 | 25° C | 39% | 1012.2 hPa | - | - | - | - |
| 1778062546 | 25° C | 39% | 1012.8 hPa | - | - | - | - |
| 1778059846 | 24.44° C | 43% | 1013.2 hPa | - | - | - | - |
| 1778058946 | 23.89° C | 45% | 1013.2 hPa | - | - | - | - |
| 1778058046 | 23.89° C | 46% | 1013.3 hPa | - | - | - | - |
| 1778057146 | 23.89° C | 46% | 1013.2 hPa | - | - | - | - |
| 1778051745 | 21.11° C | 52% | 1013.3 hPa | - | - | - | - |
| 1778050845 | 21.11° C | 52% | 1013.4 hPa | - | - | - | - |
| 1778049945 | 21.11° C | 51% | 1013.4 hPa | - | - | - | - |
| 1778049045 | 20° C | 53% | 1013.4 hPa | - | - | - | - |
| 1778045445 | 20° C | 53% | 1013.2 hPa | - | - | - | - |
| 1778044544 | 19.44° C | 55% | 1013.3 hPa | - | - | - | - |
| 1778042744 | 17.78° C | 59% | 1013.1 hPa | - | - | - | - |
| 1778041844 | 16.11° C | 65% | 1013 hPa | - | - | - | - |
* Rain since midnight (hover to see other rain measurements)
** Current wind speed in m/s (hover to see current wind gust speed)